sensor_id;sensor_type;location;lat;lon;timestamp;P1;durP1;ratioP1;P2;durP2;ratioP2
45650;SDS011;31365;48.858;8.530;2023-12-20T00:00:51;2.20;;;1.50;;
45650;SDS011;31365;48.858;8.530;2023-12-20T00:03:19;2.47;;;2.27;;
45650;SDS011;31365;48.858;8.530;2023-12-20T00:05:47;1.60;;;1.50;;
45650;SDS011;31365;48.858;8.530;2023-12-20T00:08:16;1.70;;;1.60;;
45650;SDS011;31365;48.858;8.530;2023-12-20T00:10:44;2.33;;;1.73;;
45650;SDS011;31365;48.858;8.530;2023-12-20T00:13:13;1.50;;;1.40;;
45650;SDS011;31365;48.858;8.530;2023-12-20T00:15:42;1.40;;;1.40;;
45650;SDS011;31365;48.858;8.530;2023-12-20T00:18:10;1.60;;;1.50;;
45650;SDS011;31365;48.858;8.530;2023-12-20T00:20:39;1.60;;;1.50;;
45650;SDS011;31365;48.858;8.530;2023-12-20T00:23:08;1.80;;;1.70;;
45650;SDS011;31365;48.858;8.530;2023-12-20T00:25:36;1.50;;;1.40;;
45650;SDS011;31365;48.858;8.530;2023-12-20T00:28:05;1.60;;;1.50;;
45650;SDS011;31365;48.858;8.530;2023-12-20T00:30:34;1.53;;;1.47;;
45650;SDS011;31365;48.858;8.530;2023-12-20T00:33:04;1.70;;;1.60;;
45650;SDS011;31365;48.858;8.530;2023-12-20T00:35:33;2.20;;;2.00;;
45650;SDS011;31365;48.858;8.530;2023-12-20T00:38:01;1.90;;;1.80;;
45650;SDS011;31365;48.858;8.530;2023-12-20T00:40:31;2.13;;;1.93;;
45650;SDS011;31365;48.858;8.530;2023-12-20T00:42:59;2.30;;;2.20;;
45650;SDS011;31365;48.858;8.530;2023-12-20T00:45:28;1.80;;;1.70;;
45650;SDS011;31365;48.858;8.530;2023-12-20T00:47:56;1.30;;;1.30;;
45650;SDS011;31365;48.858;8.530;2023-12-20T00:50:27;1.30;;;1.30;;
45650;SDS011;31365;48.858;8.530;2023-12-20T00:52:56;1.60;;;1.50;;
45650;SDS011;31365;48.858;8.530;2023-12-20T00:55:24;1.60;;;1.50;;
45650;SDS011;31365;48.858;8.530;2023-12-20T00:57:53;1.37;;;1.37;;
45650;SDS011;31365;48.858;8.530;2023-12-20T01:00:21;1.40;;;1.30;;
45650;SDS011;31365;48.858;8.530;2023-12-20T01:02:49;1.43;;;1.40;;
45650;SDS011;31365;48.858;8.530;2023-12-20T01:05:18;1.67;;;1.50;;
45650;SDS011;31365;48.858;8.530;2023-12-20T01:07:51;1.33;;;1.30;;
45650;SDS011;31365;48.858;8.530;2023-12-20T01:10:19;1.50;;;1.40;;
45650;SDS011;31365;48.858;8.530;2023-12-20T01:12:48;1.50;;;1.40;;
45650;SDS011;31365;48.858;8.530;2023-12-20T01:15:16;1.20;;;1.20;;
45650;SDS011;31365;48.858;8.530;2023-12-20T01:17:44;1.50;;;1.40;;
45650;SDS011;31365;48.858;8.530;2023-12-20T01:20:14;1.50;;;1.40;;
45650;SDS011;31365;48.858;8.530;2023-12-20T01:22:43;1.60;;;1.50;;
45650;SDS011;31365;48.858;8.530;2023-12-20T01:25:13;1.30;;;1.30;;
45650;SDS011;31365;48.858;8.530;2023-12-20T01:27:42;1.40;;;1.40;;
45650;SDS011;31365;48.858;8.530;2023-12-20T01:30:11;1.50;;;1.40;;
45650;SDS011;31365;48.858;8.530;2023-12-20T01:32:40;1.30;;;1.30;;
45650;SDS011;31365;48.858;8.530;2023-12-20T01:35:09;1.20;;;1.20;;
45650;SDS011;31365;48.858;8.530;2023-12-20T01:37:39;1.30;;;1.30;;
45650;SDS011;31365;48.858;8.530;2023-12-20T01:40:08;1.90;;;1.53;;
45650;SDS011;31365;48.858;8.530;2023-12-20T01:42:38;1.20;;;1.20;;
45650;SDS011;31365;48.858;8.530;2023-12-20T01:45:08;1.27;;;1.27;;
45650;SDS011;31365;48.858;8.530;2023-12-20T01:47:37;1.30;;;1.20;;
45650;SDS011;31365;48.858;8.530;2023-12-20T01:50:05;1.37;;;1.37;;
45650;SDS011;31365;48.858;8.530;2023-12-20T01:52:35;1.30;;;1.30;;
45650;SDS011;31365;48.858;8.530;2023-12-20T01:55:04;1.40;;;1.40;;
45650;SDS011;31365;48.858;8.530;2023-12-20T01:57:41;1.50;;;1.40;;
45650;SDS011;31365;48.858;8.530;2023-12-20T02:00:10;1.30;;;1.30;;
45650;SDS011;31365;48.858;8.530;2023-12-20T02:02:41;1.50;;;1.50;;
45650;SDS011;31365;48.858;8.530;2023-12-20T02:05:11;1.33;;;1.33;;
45650;SDS011;31365;48.858;8.530;2023-12-20T02:07:41;1.50;;;1.40;;
45650;SDS011;31365;48.858;8.530;2023-12-20T02:10:10;1.30;;;1.30;;
45650;SDS011;31365;48.858;8.530;2023-12-20T02:12:41;1.60;;;1.50;;
45650;SDS011;31365;48.858;8.530;2023-12-20T02:15:10;1.53;;;1.40;;
45650;SDS011;31365;48.858;8.530;2023-12-20T02:17:38;1.37;;;1.37;;
45650;SDS011;31365;48.858;8.530;2023-12-20T02:20:08;1.20;;;1.20;;
45650;SDS011;31365;48.858;8.530;2023-12-20T02:22:38;1.30;;;1.30;;
45650;SDS011;31365;48.858;8.530;2023-12-20T02:25:07;1.30;;;1.30;;
45650;SDS011;31365;48.858;8.530;2023-12-20T02:27:35;1.30;;;1.30;;
45650;SDS011;31365;48.858;8.530;2023-12-20T02:30:04;1.30;;;1.30;;
45650;SDS011;31365;48.858;8.530;2023-12-20T02:32:34;1.30;;;1.30;;
45650;SDS011;31365;48.858;8.530;2023-12-20T02:35:03;1.50;;;1.40;;
45650;SDS011;31365;48.858;8.530;2023-12-20T02:37:32;2.03;;;1.40;;
45650;SDS011;31365;48.858;8.530;2023-12-20T02:40:02;1.50;;;1.40;;
45650;SDS011;31365;48.858;8.530;2023-12-20T02:42:32;1.30;;;1.30;;
45650;SDS011;31365;48.858;8.530;2023-12-20T02:45:00;1.20;;;1.20;;
45650;SDS011;31365;48.858;8.530;2023-12-20T02:47:28;1.40;;;1.40;;
45650;SDS011;31365;48.858;8.530;2023-12-20T02:49:57;1.30;;;1.30;;
45650;SDS011;31365;48.858;8.530;2023-12-20T02:52:25;1.67;;;1.40;;
45650;SDS011;31365;48.858;8.530;2023-12-20T02:54:56;1.70;;;1.60;;
45650;SDS011;31365;48.858;8.530;2023-12-20T02:59:59;1.27;;;1.27;;
45650;SDS011;31365;48.858;8.530;2023-12-20T03:02:28;1.40;;;1.40;;
45650;SDS011;31365;48.858;8.530;2023-12-20T03:04:56;1.60;;;1.50;;
45650;SDS011;31365;48.858;8.530;2023-12-20T03:07:26;1.50;;;1.50;;
45650;SDS011;31365;48.858;8.530;2023-12-20T03:09:54;1.50;;;1.50;;
45650;SDS011;31365;48.858;8.530;2023-12-20T03:12:43;1.70;;;1.60;;
45650;SDS011;31365;48.858;8.530;2023-12-20T03:15:11;1.77;;;1.67;;
45650;SDS011;31365;48.858;8.530;2023-12-20T03:17:40;1.43;;;1.43;;
45650;SDS011;31365;48.858;8.530;2023-12-20T03:20:09;1.47;;;1.47;;
45650;SDS011;31365;48.858;8.530;2023-12-20T03:22:38;1.47;;;1.37;;
45650;SDS011;31365;48.858;8.530;2023-12-20T03:25:06;1.30;;;1.30;;
45650;SDS011;31365;48.858;8.530;2023-12-20T03:27:36;1.27;;;1.20;;
45650;SDS011;31365;48.858;8.530;2023-12-20T03:30:08;1.40;;;1.40;;
45650;SDS011;31365;48.858;8.530;2023-12-20T03:32:38;1.40;;;1.40;;
45650;SDS011;31365;48.858;8.530;2023-12-20T03:35:06;1.90;;;1.40;;
45650;SDS011;31365;48.858;8.530;2023-12-20T03:37:34;1.57;;;1.47;;
45650;SDS011;31365;48.858;8.530;2023-12-20T03:40:04;1.30;;;1.30;;
45650;SDS011;31365;48.858;8.530;2023-12-20T03:42:33;1.60;;;1.50;;
45650;SDS011;31365;48.858;8.530;2023-12-20T03:45:01;1.40;;;1.40;;
45650;SDS011;31365;48.858;8.530;2023-12-20T03:47:31;1.30;;;1.30;;
45650;SDS011;31365;48.858;8.530;2023-12-20T03:50:00;1.20;;;1.20;;
45650;SDS011;31365;48.858;8.530;2023-12-20T03:52:28;1.40;;;1.40;;
45650;SDS011;31365;48.858;8.530;2023-12-20T03:54:57;1.40;;;1.30;;
45650;SDS011;31365;48.858;8.530;2023-12-20T03:57:25;1.80;;;1.70;;
45650;SDS011;31365;48.858;8.530;2023-12-20T03:59:53;1.20;;;1.20;;
45650;SDS011;31365;48.858;8.530;2023-12-20T04:02:21;1.17;;;1.17;;
45650;SDS011;31365;48.858;8.530;2023-12-20T04:04:50;1.30;;;1.30;;
45650;SDS011;31365;48.858;8.530;2023-12-20T04:07:19;1.17;;;1.17;;
45650;SDS011;31365;48.858;8.530;2023-12-20T04:09:48;1.20;;;1.20;;
45650;SDS011;31365;48.858;8.530;2023-12-20T04:12:16;1.20;;;1.20;;
45650;SDS011;31365;48.858;8.530;2023-12-20T04:14:44;1.30;;;1.30;;
45650;SDS011;31365;48.858;8.530;2023-12-20T04:17:13;1.30;;;1.30;;
45650;SDS011;31365;48.858;8.530;2023-12-20T04:19:43;1.40;;;1.30;;
45650;SDS011;31365;48.858;8.530;2023-12-20T04:22:13;1.40;;;1.40;;
45650;SDS011;31365;48.858;8.530;2023-12-20T04:24:41;1.40;;;1.40;;
45650;SDS011;31365;48.858;8.530;2023-12-20T04:27:09;1.50;;;1.40;;
45650;SDS011;31365;48.858;8.530;2023-12-20T04:29:38;1.53;;;1.47;;
45650;SDS011;31365;48.858;8.530;2023-12-20T04:32:06;1.70;;;1.60;;
45650;SDS011;31365;48.858;8.530;2023-12-20T04:34:34;1.40;;;1.40;;
45650;SDS011;31365;48.858;8.530;2023-12-20T04:37:03;1.80;;;1.70;;
45650;SDS011;31365;48.858;8.530;2023-12-20T04:39:33;1.90;;;1.80;;
45650;SDS011;31365;48.858;8.530;2023-12-20T04:42:02;2.20;;;2.10;;
45650;SDS011;31365;48.858;8.530;2023-12-20T04:44:31;1.80;;;1.70;;
45650;SDS011;31365;48.858;8.530;2023-12-20T04:46:59;1.93;;;1.83;;
45650;SDS011;31365;48.858;8.530;2023-12-20T04:49:27;1.90;;;1.80;;
45650;SDS011;31365;48.858;8.530;2023-12-20T04:51:55;1.70;;;1.60;;
45650;SDS011;31365;48.858;8.530;2023-12-20T04:54:24;1.80;;;1.70;;
45650;SDS011;31365;48.858;8.530;2023-12-20T04:56:53;1.70;;;1.60;;
45650;SDS011;31365;48.858;8.530;2023-12-20T04:59:21;1.80;;;1.70;;
45650;SDS011;31365;48.858;8.530;2023-12-20T05:01:49;2.00;;;1.90;;
45650;SDS011;31365;48.858;8.530;2023-12-20T05:04:19;2.20;;;2.10;;
45650;SDS011;31365;48.858;8.530;2023-12-20T05:06:47;2.27;;;1.80;;
45650;SDS011;31365;48.858;8.530;2023-12-20T05:09:16;1.97;;;1.87;;
45650;SDS011;31365;48.858;8.530;2023-12-20T05:11:44;2.00;;;1.90;;
45650;SDS011;31365;48.858;8.530;2023-12-20T05:14:14;2.10;;;2.00;;
45650;SDS011;31365;48.858;8.530;2023-12-20T05:16:42;2.20;;;2.10;;
45650;SDS011;31365;48.858;8.530;2023-12-20T05:19:10;2.10;;;2.00;;
45650;SDS011;31365;48.858;8.530;2023-12-20T05:21:39;2.27;;;2.17;;
45650;SDS011;31365;48.858;8.530;2023-12-20T05:24:07;2.30;;;2.20;;
45650;SDS011;31365;48.858;8.530;2023-12-20T05:26:35;2.40;;;2.20;;
45650;SDS011;31365;48.858;8.530;2023-12-20T05:29:03;2.20;;;2.10;;
45650;SDS011;31365;48.858;8.530;2023-12-20T05:31:33;2.00;;;1.90;;
45650;SDS011;31365;48.858;8.530;2023-12-20T05:34:01;2.20;;;2.00;;
45650;SDS011;31365;48.858;8.530;2023-12-20T05:36:31;2.63;;;2.43;;
45650;SDS011;31365;48.858;8.530;2023-12-20T05:38:59;2.70;;;2.50;;
45650;SDS011;31365;48.858;8.530;2023-12-20T05:41:27;3.43;;;3.13;;
45650;SDS011;31365;48.858;8.530;2023-12-20T05:43:56;2.20;;;2.10;;
45650;SDS011;31365;48.858;8.530;2023-12-20T05:46:24;2.00;;;1.90;;
45650;SDS011;31365;48.858;8.530;2023-12-20T05:48:54;2.03;;;1.93;;
45650;SDS011;31365;48.858;8.530;2023-12-20T05:51:22;2.00;;;1.90;;
45650;SDS011;31365;48.858;8.530;2023-12-20T05:53:50;2.00;;;1.90;;
45650;SDS011;31365;48.858;8.530;2023-12-20T05:56:19;2.00;;;1.90;;
45650;SDS011;31365;48.858;8.530;2023-12-20T05:58:48;2.80;;;2.20;;
45650;SDS011;31365;48.858;8.530;2023-12-20T06:01:16;2.50;;;2.30;;
45650;SDS011;31365;48.858;8.530;2023-12-20T06:03:44;2.30;;;2.20;;
45650;SDS011;31365;48.858;8.530;2023-12-20T06:06:14;2.10;;;2.00;;
45650;SDS011;31365;48.858;8.530;2023-12-20T06:08:44;2.70;;;2.60;;
45650;SDS011;31365;48.858;8.530;2023-12-20T06:11:12;3.47;;;3.27;;
45650;SDS011;31365;48.858;8.530;2023-12-20T06:13:41;3.73;;;2.83;;
45650;SDS011;31365;48.858;8.530;2023-12-20T06:16:10;3.10;;;2.90;;
45650;SDS011;31365;48.858;8.530;2023-12-20T06:18:38;3.10;;;2.90;;
45650;SDS011;31365;48.858;8.530;2023-12-20T06:21:06;4.43;;;3.50;;
45650;SDS011;31365;48.858;8.530;2023-12-20T06:23:36;2.97;;;2.67;;
45650;SDS011;31365;48.858;8.530;2023-12-20T06:26:04;2.80;;;2.60;;
45650;SDS011;31365;48.858;8.530;2023-12-20T06:28:32;3.00;;;2.80;;
45650;SDS011;31365;48.858;8.530;2023-12-20T06:31:00;2.50;;;2.40;;
45650;SDS011;31365;48.858;8.530;2023-12-20T06:33:29;2.60;;;2.40;;
45650;SDS011;31365;48.858;8.530;2023-12-20T06:35:58;2.40;;;2.20;;
45650;SDS011;31365;48.858;8.530;2023-12-20T06:38:26;2.30;;;2.20;;
45650;SDS011;31365;48.858;8.530;2023-12-20T06:40:56;2.60;;;2.40;;
45650;SDS011;31365;48.858;8.530;2023-12-20T06:43:25;2.53;;;2.33;;
45650;SDS011;31365;48.858;8.530;2023-12-20T06:46:12;2.23;;;2.13;;
45650;SDS011;31365;48.858;8.530;2023-12-20T06:48:40;2.33;;;2.23;;
45650;SDS011;31365;48.858;8.530;2023-12-20T06:51:10;2.80;;;2.60;;
45650;SDS011;31365;48.858;8.530;2023-12-20T06:53:41;2.87;;;2.67;;
45650;SDS011;31365;48.858;8.530;2023-12-20T06:56:12;2.33;;;2.23;;
45650;SDS011;31365;48.858;8.530;2023-12-20T06:58:44;2.60;;;2.40;;
45650;SDS011;31365;48.858;8.530;2023-12-20T07:01:14;2.93;;;2.63;;
45650;SDS011;31365;48.858;8.530;2023-12-20T07:03:43;2.40;;;2.30;;
45650;SDS011;31365;48.858;8.530;2023-12-20T07:06:11;2.70;;;2.50;;
45650;SDS011;31365;48.858;8.530;2023-12-20T07:08:42;3.03;;;2.83;;
45650;SDS011;31365;48.858;8.530;2023-12-20T07:11:10;3.03;;;2.70;;
45650;SDS011;31365;48.858;8.530;2023-12-20T07:13:39;2.87;;;2.67;;
45650;SDS011;31365;48.858;8.530;2023-12-20T07:16:08;2.90;;;2.70;;
45650;SDS011;31365;48.858;8.530;2023-12-20T07:18:36;3.10;;;2.90;;
45650;SDS011;31365;48.858;8.530;2023-12-20T07:21:05;3.33;;;3.13;;
45650;SDS011;31365;48.858;8.530;2023-12-20T07:23:34;3.13;;;2.93;;
45650;SDS011;31365;48.858;8.530;2023-12-20T07:26:03;3.30;;;3.10;;
45650;SDS011;31365;48.858;8.530;2023-12-20T07:28:31;3.27;;;3.07;;
45650;SDS011;31365;48.858;8.530;2023-12-20T07:31:01;3.10;;;2.90;;
45650;SDS011;31365;48.858;8.530;2023-12-20T07:33:29;2.97;;;2.67;;
45650;SDS011;31365;48.858;8.530;2023-12-20T07:36:05;3.43;;;3.20;;
45650;SDS011;31365;48.858;8.530;2023-12-20T07:38:34;3.60;;;3.30;;
45650;SDS011;31365;48.858;8.530;2023-12-20T07:41:03;3.07;;;2.87;;
45650;SDS011;31365;48.858;8.530;2023-12-20T07:43:31;3.00;;;2.80;;
45650;SDS011;31365;48.858;8.530;2023-12-20T07:46:04;3.00;;;2.80;;
45650;SDS011;31365;48.858;8.530;2023-12-20T07:48:33;3.27;;;2.90;;
45650;SDS011;31365;48.858;8.530;2023-12-20T07:51:03;3.20;;;2.90;;
45650;SDS011;31365;48.858;8.530;2023-12-20T07:53:34;3.13;;;2.93;;
45650;SDS011;31365;48.858;8.530;2023-12-20T07:56:02;3.20;;;3.00;;
45650;SDS011;31365;48.858;8.530;2023-12-20T07:58:42;3.50;;;3.20;;
45650;SDS011;31365;48.858;8.530;2023-12-20T08:01:20;3.10;;;2.90;;
45650;SDS011;31365;48.858;8.530;2023-12-20T08:03:49;4.03;;;2.90;;
45650;SDS011;31365;48.858;8.530;2023-12-20T08:06:18;2.97;;;2.77;;
45650;SDS011;31365;48.858;8.530;2023-12-20T08:08:47;2.60;;;2.40;;
45650;SDS011;31365;48.858;8.530;2023-12-20T08:11:27;3.13;;;2.90;;
45650;SDS011;31365;48.858;8.530;2023-12-20T08:13:56;4.03;;;3.10;;
45650;SDS011;31365;48.858;8.530;2023-12-20T08:16:25;3.00;;;2.70;;
45650;SDS011;31365;48.858;8.530;2023-12-20T08:18:54;3.10;;;2.80;;
45650;SDS011;31365;48.858;8.530;2023-12-20T08:21:22;3.30;;;2.93;;
45650;SDS011;31365;48.858;8.530;2023-12-20T08:23:50;5.20;;;2.73;;
45650;SDS011;31365;48.858;8.530;2023-12-20T08:26:19;4.20;;;3.20;;
45650;SDS011;31365;48.858;8.530;2023-12-20T08:28:48;3.60;;;3.30;;
45650;SDS011;31365;48.858;8.530;2023-12-20T08:31:17;6.13;;;3.20;;
45650;SDS011;31365;48.858;8.530;2023-12-20T08:33:48;3.17;;;2.97;;
45650;SDS011;31365;48.858;8.530;2023-12-20T08:36:17;3.90;;;3.03;;
45650;SDS011;31365;48.858;8.530;2023-12-20T08:38:47;5.27;;;3.23;;
45650;SDS011;31365;48.858;8.530;2023-12-20T08:41:16;3.27;;;3.00;;
45650;SDS011;31365;48.858;8.530;2023-12-20T08:43:45;3.90;;;3.37;;
45650;SDS011;31365;48.858;8.530;2023-12-20T08:46:14;3.47;;;3.17;;
45650;SDS011;31365;48.858;8.530;2023-12-20T08:48:43;4.90;;;3.23;;
45650;SDS011;31365;48.858;8.530;2023-12-20T08:51:13;4.10;;;3.80;;
45650;SDS011;31365;48.858;8.530;2023-12-20T08:53:41;4.47;;;3.70;;
45650;SDS011;31365;48.858;8.530;2023-12-20T08:56:11;5.43;;;3.60;;
45650;SDS011;31365;48.858;8.530;2023-12-20T08:58:39;6.53;;;3.60;;
45650;SDS011;31365;48.858;8.530;2023-12-20T09:01:08;4.63;;;4.03;;
45650;SDS011;31365;48.858;8.530;2023-12-20T09:03:38;6.13;;;4.40;;
45650;SDS011;31365;48.858;8.530;2023-12-20T09:06:07;4.27;;;3.30;;
45650;SDS011;31365;48.858;8.530;2023-12-20T09:08:36;4.73;;;3.10;;
45650;SDS011;31365;48.858;8.530;2023-12-20T09:11:05;3.77;;;3.17;;
45650;SDS011;31365;48.858;8.530;2023-12-20T09:13:34;4.07;;;3.30;;
45650;SDS011;31365;48.858;8.530;2023-12-20T09:16:02;5.43;;;4.10;;
45650;SDS011;31365;48.858;8.530;2023-12-20T09:18:31;5.43;;;3.53;;
45650;SDS011;31365;48.858;8.530;2023-12-20T09:20:59;8.07;;;5.00;;
45650;SDS011;31365;48.858;8.530;2023-12-20T09:23:28;4.47;;;3.00;;
45650;SDS011;31365;48.858;8.530;2023-12-20T09:25:57;3.37;;;2.80;;
45650;SDS011;31365;48.858;8.530;2023-12-20T09:28:25;6.97;;;4.43;;
45650;SDS011;31365;48.858;8.530;2023-12-20T09:30:54;4.70;;;3.40;;
45650;SDS011;31365;48.858;8.530;2023-12-20T09:33:22;4.30;;;2.70;;
45650;SDS011;31365;48.858;8.530;2023-12-20T09:35:51;4.37;;;3.10;;
45650;SDS011;31365;48.858;8.530;2023-12-20T09:38:20;5.70;;;3.47;;
45650;SDS011;31365;48.858;8.530;2023-12-20T09:40:49;2.90;;;2.60;;
45650;SDS011;31365;48.858;8.530;2023-12-20T09:43:19;3.83;;;3.13;;
45650;SDS011;31365;48.858;8.530;2023-12-20T09:45:52;6.17;;;5.00;;
45650;SDS011;31365;48.858;8.530;2023-12-20T09:48:21;4.53;;;3.77;;
45650;SDS011;31365;48.858;8.530;2023-12-20T09:50:50;5.60;;;3.70;;
45650;SDS011;31365;48.858;8.530;2023-12-20T09:53:19;5.83;;;2.87;;
45650;SDS011;31365;48.858;8.530;2023-12-20T09:55:56;3.97;;;3.57;;
45650;SDS011;31365;48.858;8.530;2023-12-20T09:58:28;7.30;;;3.43;;
45650;SDS011;31365;48.858;8.530;2023-12-20T10:00:56;4.80;;;3.30;;
45650;SDS011;31365;48.858;8.530;2023-12-20T10:03:25;5.33;;;3.27;;
45650;SDS011;31365;48.858;8.530;2023-12-20T10:05:54;6.03;;;3.37;;
45650;SDS011;31365;48.858;8.530;2023-12-20T10:08:25;6.67;;;4.50;;
45650;SDS011;31365;48.858;8.530;2023-12-20T10:10:54;4.40;;;3.50;;
45650;SDS011;31365;48.858;8.530;2023-12-20T10:13:24;4.93;;;4.00;;
45650;SDS011;31365;48.858;8.530;2023-12-20T10:15:54;4.63;;;3.53;;
45650;SDS011;31365;48.858;8.530;2023-12-20T10:18:24;6.67;;;3.13;;
45650;SDS011;31365;48.858;8.530;2023-12-20T10:21:04;3.87;;;2.60;;
45650;SDS011;31365;48.858;8.530;2023-12-20T10:23:34;5.43;;;3.27;;
45650;SDS011;31365;48.858;8.530;2023-12-20T10:26:02;6.23;;;3.90;;
45650;SDS011;31365;48.858;8.530;2023-12-20T10:28:33;7.70;;;4.60;;
45650;SDS011;31365;48.858;8.530;2023-12-20T10:31:03;6.60;;;3.57;;
45650;SDS011;31365;48.858;8.530;2023-12-20T10:33:31;6.33;;;3.90;;
45650;SDS011;31365;48.858;8.530;2023-12-20T10:36:00;5.50;;;4.10;;
45650;SDS011;31365;48.858;8.530;2023-12-20T10:38:29;5.50;;;3.40;;
45650;SDS011;31365;48.858;8.530;2023-12-20T10:40:57;5.43;;;3.30;;
45650;SDS011;31365;48.858;8.530;2023-12-20T10:43:26;7.13;;;4.27;;
45650;SDS011;31365;48.858;8.530;2023-12-20T10:45:58;3.80;;;3.13;;
45650;SDS011;31365;48.858;8.530;2023-12-20T10:48:28;5.50;;;3.30;;
45650;SDS011;31365;48.858;8.530;2023-12-20T10:51:00;3.47;;;3.17;;
45650;SDS011;31365;48.858;8.530;2023-12-20T10:53:30;8.70;;;6.47;;
45650;SDS011;31365;48.858;8.530;2023-12-20T10:56:00;5.03;;;3.93;;
45650;SDS011;31365;48.858;8.530;2023-12-20T10:58:30;13.07;;;10.10;;
45650;SDS011;31365;48.858;8.530;2023-12-20T11:01:02;7.63;;;4.33;;
45650;SDS011;31365;48.858;8.530;2023-12-20T11:03:34;9.87;;;6.43;;
45650;SDS011;31365;48.858;8.530;2023-12-20T11:06:10;7.53;;;6.67;;
45650;SDS011;31365;48.858;8.530;2023-12-20T11:08:58;10.63;;;6.03;;
45650;SDS011;31365;48.858;8.530;2023-12-20T11:11:42;7.30;;;4.93;;
45650;SDS011;31365;48.858;8.530;2023-12-20T11:14:29;8.43;;;6.67;;
45650;SDS011;31365;48.858;8.530;2023-12-20T11:17:06;5.97;;;3.50;;
45650;SDS011;31365;48.858;8.530;2023-12-20T11:19:39;5.77;;;4.50;;
45650;SDS011;31365;48.858;8.530;2023-12-20T11:22:34;5.50;;;3.90;;
45650;SDS011;31365;48.858;8.530;2023-12-20T11:25:07;4.97;;;3.00;;
45650;SDS011;31365;48.858;8.530;2023-12-20T11:27:40;4.17;;;3.20;;
45650;SDS011;31365;48.858;8.530;2023-12-20T11:30:13;8.87;;;2.73;;
45650;SDS011;31365;48.858;8.530;2023-12-20T11:32:43;4.67;;;3.13;;
45650;SDS011;31365;48.858;8.530;2023-12-20T11:35:18;3.80;;;3.13;;
45650;SDS011;31365;48.858;8.530;2023-12-20T11:37:47;6.47;;;3.47;;
45650;SDS011;31365;48.858;8.530;2023-12-20T11:40:16;6.37;;;3.40;;
45650;SDS011;31365;48.858;8.530;2023-12-20T11:42:48;6.87;;;3.43;;
45650;SDS011;31365;48.858;8.530;2023-12-20T11:45:21;4.77;;;2.60;;
45650;SDS011;31365;48.858;8.530;2023-12-20T11:47:56;4.63;;;2.30;;
45650;SDS011;31365;48.858;8.530;2023-12-20T11:50:26;12.30;;;3.10;;
45650;SDS011;31365;48.858;8.530;2023-12-20T11:52:56;7.17;;;2.80;;
45650;SDS011;31365;48.858;8.530;2023-12-20T11:55:24;3.73;;;2.60;;
45650;SDS011;31365;48.858;8.530;2023-12-20T11:57:53;5.70;;;2.70;;
45650;SDS011;31365;48.858;8.530;2023-12-20T12:00:21;6.60;;;3.20;;
45650;SDS011;31365;48.858;8.530;2023-12-20T12:02:56;4.17;;;2.87;;
45650;SDS011;31365;48.858;8.530;2023-12-20T12:05:27;5.30;;;2.60;;
45650;SDS011;31365;48.858;8.530;2023-12-20T12:07:55;3.10;;;2.33;;
45650;SDS011;31365;48.858;8.530;2023-12-20T12:10:23;7.13;;;2.67;;
45650;SDS011;31365;48.858;8.530;2023-12-20T12:12:51;4.73;;;2.77;;
45650;SDS011;31365;48.858;8.530;2023-12-20T12:15:20;4.97;;;2.27;;
45650;SDS011;31365;48.858;8.530;2023-12-20T12:17:55;4.57;;;2.70;;
45650;SDS011;31365;48.858;8.530;2023-12-20T12:20:27;4.17;;;2.60;;
45650;SDS011;31365;48.858;8.530;2023-12-20T12:22:58;6.13;;;3.13;;
45650;SDS011;31365;48.858;8.530;2023-12-20T12:25:28;6.13;;;2.80;;
45650;SDS011;31365;48.858;8.530;2023-12-20T12:27:57;6.93;;;3.00;;
45650;SDS011;31365;48.858;8.530;2023-12-20T12:30:26;3.97;;;2.60;;
45650;SDS011;31365;48.858;8.530;2023-12-20T12:33:04;4.20;;;2.83;;
45650;SDS011;31365;48.858;8.530;2023-12-20T12:35:34;6.73;;;2.87;;
45650;SDS011;31365;48.858;8.530;2023-12-20T12:38:02;4.33;;;2.70;;
45650;SDS011;31365;48.858;8.530;2023-12-20T12:40:34;6.07;;;2.90;;
45650;SDS011;31365;48.858;8.530;2023-12-20T12:43:03;4.37;;;2.10;;
45650;SDS011;31365;48.858;8.530;2023-12-20T12:45:33;4.60;;;2.50;;
45650;SDS011;31365;48.858;8.530;2023-12-20T12:48:01;4.20;;;2.30;;
45650;SDS011;31365;48.858;8.530;2023-12-20T12:50:30;6.90;;;2.93;;
45650;SDS011;31365;48.858;8.530;2023-12-20T12:53:00;5.43;;;4.47;;
45650;SDS011;31365;48.858;8.530;2023-12-20T12:55:28;7.57;;;4.17;;
45650;SDS011;31365;48.858;8.530;2023-12-20T12:57:57;9.07;;;5.83;;
45650;SDS011;31365;48.858;8.530;2023-12-20T13:00:25;4.83;;;4.33;;
45650;SDS011;31365;48.858;8.530;2023-12-20T13:02:53;5.07;;;2.80;;
45650;SDS011;31365;48.858;8.530;2023-12-20T13:05:22;7.00;;;2.50;;
45650;SDS011;31365;48.858;8.530;2023-12-20T13:07:50;6.17;;;3.13;;
45650;SDS011;31365;48.858;8.530;2023-12-20T13:10:20;6.17;;;3.63;;
45650;SDS011;31365;48.858;8.530;2023-12-20T13:12:48;5.40;;;3.40;;
45650;SDS011;31365;48.858;8.530;2023-12-20T13:15:17;4.43;;;3.10;;
45650;SDS011;31365;48.858;8.530;2023-12-20T13:17:45;5.67;;;3.63;;
45650;SDS011;31365;48.858;8.530;2023-12-20T13:20:14;11.10;;;3.63;;
45650;SDS011;31365;48.858;8.530;2023-12-20T13:22:43;4.93;;;3.10;;
45650;SDS011;31365;48.858;8.530;2023-12-20T13:25:11;4.07;;;2.60;;
45650;SDS011;31365;48.858;8.530;2023-12-20T13:27:41;8.40;;;2.97;;
45650;SDS011;31365;48.858;8.530;2023-12-20T13:30:10;6.30;;;2.83;;
45650;SDS011;31365;48.858;8.530;2023-12-20T13:32:39;5.23;;;3.13;;
45650;SDS011;31365;48.858;8.530;2023-12-20T13:35:08;6.60;;;2.97;;
45650;SDS011;31365;48.858;8.530;2023-12-20T13:37:36;6.63;;;3.50;;
45650;SDS011;31365;48.858;8.530;2023-12-20T13:40:07;4.83;;;3.50;;
45650;SDS011;31365;48.858;8.530;2023-12-20T13:42:36;3.97;;;3.43;;
45650;SDS011;31365;48.858;8.530;2023-12-20T13:45:07;4.27;;;2.70;;
45650;SDS011;31365;48.858;8.530;2023-12-20T13:47:35;6.30;;;3.87;;
45650;SDS011;31365;48.858;8.530;2023-12-20T13:50:04;12.53;;;5.10;;
45650;SDS011;31365;48.858;8.530;2023-12-20T13:52:36;6.25;;;3.03;;
45650;SDS011;31365;48.858;8.530;2023-12-20T13:55:05;11.33;;;6.67;;
45650;SDS011;31365;48.858;8.530;2023-12-20T13:57:35;12.20;;;5.60;;
45650;SDS011;31365;48.858;8.530;2023-12-20T14:00:21;6.33;;;2.80;;
45650;SDS011;31365;48.858;8.530;2023-12-20T14:02:50;2.93;;;2.63;;
45650;SDS011;31365;48.858;8.530;2023-12-20T14:05:19;9.40;;;3.00;;
45650;SDS011;31365;48.858;8.530;2023-12-20T14:07:53;7.20;;;2.77;;
45650;SDS011;31365;48.858;8.530;2023-12-20T14:10:24;6.53;;;3.60;;
45650;SDS011;31365;48.858;8.530;2023-12-20T14:12:54;5.93;;;4.67;;
45650;SDS011;31365;48.858;8.530;2023-12-20T14:15:24;6.63;;;4.57;;
45650;SDS011;31365;48.858;8.530;2023-12-20T14:17:52;7.67;;;4.20;;
45650;SDS011;31365;48.858;8.530;2023-12-20T14:20:21;7.20;;;3.23;;
45650;SDS011;31365;48.858;8.530;2023-12-20T14:22:50;8.07;;;4.00;;
45650;SDS011;31365;48.858;8.530;2023-12-20T14:25:18;10.00;;;4.50;;
45650;SDS011;31365;48.858;8.530;2023-12-20T14:27:46;12.00;;;5.17;;
45650;SDS011;31365;48.858;8.530;2023-12-20T14:30:15;11.73;;;6.50;;
45650;SDS011;31365;48.858;8.530;2023-12-20T14:32:45;11.00;;;6.13;;
45650;SDS011;31365;48.858;8.530;2023-12-20T14:35:14;12.30;;;7.57;;
45650;SDS011;31365;48.858;8.530;2023-12-20T14:37:43;9.73;;;5.70;;
45650;SDS011;31365;48.858;8.530;2023-12-20T14:40:12;8.73;;;6.13;;
45650;SDS011;31365;48.858;8.530;2023-12-20T14:42:43;13.27;;;3.93;;
45650;SDS011;31365;48.858;8.530;2023-12-20T14:45:13;7.97;;;4.47;;
45650;SDS011;31365;48.858;8.530;2023-12-20T14:47:42;5.67;;;4.53;;
45650;SDS011;31365;48.858;8.530;2023-12-20T14:50:14;6.90;;;4.70;;
45650;SDS011;31365;48.858;8.530;2023-12-20T14:52:45;20.37;;;12.27;;
45650;SDS011;31365;48.858;8.530;2023-12-20T14:55:14;9.50;;;6.57;;
45650;SDS011;31365;48.858;8.530;2023-12-20T14:57:43;12.43;;;6.87;;
45650;SDS011;31365;48.858;8.530;2023-12-20T15:00:12;8.57;;;4.63;;
45650;SDS011;31365;48.858;8.530;2023-12-20T15:02:42;7.83;;;4.73;;
45650;SDS011;31365;48.858;8.530;2023-12-20T15:05:13;10.23;;;5.90;;